sensor_id;sensor_type;location;lat;lon;timestamp;temperature;humidity
24446;DHT22;13347;50.984;5.822;2023-07-20T00:01:16;17.20;99.90
24446;DHT22;13347;50.984;5.822;2023-07-20T00:03:43;17.10;99.90
24446;DHT22;13347;50.984;5.822;2023-07-20T00:06:10;17.10;99.90
24446;DHT22;13347;50.984;5.822;2023-07-20T00:08:37;17.10;99.90
24446;DHT22;13347;50.984;5.822;2023-07-20T00:11:04;16.90;99.90
24446;DHT22;13347;50.984;5.822;2023-07-20T00:13:31;16.80;99.90
24446;DHT22;13347;50.984;5.822;2023-07-20T00:15:59;16.70;99.90
24446;DHT22;13347;50.984;5.822;2023-07-20T00:18:26;16.60;99.90
24446;DHT22;13347;50.984;5.822;2023-07-20T00:20:53;16.50;99.90
24446;DHT22;13347;50.984;5.822;2023-07-20T00:23:20;16.40;99.90
24446;DHT22;13347;50.984;5.822;2023-07-20T00:25:48;16.40;99.90
24446;DHT22;13347;50.984;5.822;2023-07-20T00:28:15;16.40;99.90
24446;DHT22;13347;50.984;5.822;2023-07-20T00:30:42;16.40;99.90
24446;DHT22;13347;50.984;5.822;2023-07-20T00:33:11;16.40;99.90
24446;DHT22;13347;50.984;5.822;2023-07-20T00:35:38;16.40;99.90
24446;DHT22;13347;50.984;5.822;2023-07-20T00:38:05;16.40;99.90
24446;DHT22;13347;50.984;5.822;2023-07-20T00:40:35;16.40;99.90
24446;DHT22;13347;50.984;5.822;2023-07-20T00:43:02;16.40;99.90
24446;DHT22;13347;50.984;5.822;2023-07-20T00:45:29;16.40;99.90
24446;DHT22;13347;50.984;5.822;2023-07-20T00:47:56;16.50;99.90
24446;DHT22;13347;50.984;5.822;2023-07-20T00:50:25;16.50;99.90
24446;DHT22;13347;50.984;5.822;2023-07-20T00:52:52;16.60;99.90
24446;DHT22;13347;50.984;5.822;2023-07-20T00:55:20;16.50;99.90
24446;DHT22;13347;50.984;5.822;2023-07-20T00:57:47;16.50;99.90
24446;DHT22;13347;50.984;5.822;2023-07-20T01:00:14;16.50;99.90
24446;DHT22;13347;50.984;5.822;2023-07-20T01:02:41;16.40;99.90
24446;DHT22;13347;50.984;5.822;2023-07-20T01:05:08;16.50;99.90
24446;DHT22;13347;50.984;5.822;2023-07-20T01:07:48;16.40;99.90
24446;DHT22;13347;50.984;5.822;2023-07-20T01:10:19;16.40;99.90
24446;DHT22;13347;50.984;5.822;2023-07-20T01:12:47;16.40;99.90
24446;DHT22;13347;50.984;5.822;2023-07-20T01:15:14;16.40;99.90
24446;DHT22;13347;50.984;5.822;2023-07-20T01:17:41;16.40;99.90
24446;DHT22;13347;50.984;5.822;2023-07-20T01:20:10;16.40;99.90
24446;DHT22;13347;50.984;5.822;2023-07-20T01:22:57;16.50;99.90
24446;DHT22;13347;50.984;5.822;2023-07-20T01:25:32;16.50;99.90
24446;DHT22;13347;50.984;5.822;2023-07-20T01:28:15;16.60;99.90
24446;DHT22;13347;50.984;5.822;2023-07-20T01:30:55;16.60;99.90
24446;DHT22;13347;50.984;5.822;2023-07-20T01:33:25;16.50;99.90
24446;DHT22;13347;50.984;5.822;2023-07-20T01:35:53;16.50;99.90
24446;DHT22;13347;50.984;5.822;2023-07-20T01:38:21;16.50;99.90
24446;DHT22;13347;50.984;5.822;2023-07-20T01:40:48;16.50;99.90
24446;DHT22;13347;50.984;5.822;2023-07-20T01:43:16;16.40;99.90
24446;DHT22;13347;50.984;5.822;2023-07-20T01:45:43;16.30;99.90
24446;DHT22;13347;50.984;5.822;2023-07-20T01:48:10;16.40;99.90
24446;DHT22;13347;50.984;5.822;2023-07-20T01:50:38;16.40;99.90
24446;DHT22;13347;50.984;5.822;2023-07-20T01:53:05;16.50;99.90
24446;DHT22;13347;50.984;5.822;2023-07-20T01:55:32;16.50;99.90
24446;DHT22;13347;50.984;5.822;2023-07-20T01:57:59;16.50;99.90
24446;DHT22;13347;50.984;5.822;2023-07-20T02:00:27;16.50;99.90
24446;DHT22;13347;50.984;5.822;2023-07-20T02:02:54;16.40;99.90
24446;DHT22;13347;50.984;5.822;2023-07-20T02:05:21;16.40;99.90
24446;DHT22;13347;50.984;5.822;2023-07-20T02:07:49;16.50;99.90
24446;DHT22;13347;50.984;5.822;2023-07-20T02:10:16;16.50;99.90
24446;DHT22;13347;50.984;5.822;2023-07-20T02:12:43;16.50;99.90
24446;DHT22;13347;50.984;5.822;2023-07-20T02:15:10;16.40;99.90
24446;DHT22;13347;50.984;5.822;2023-07-20T02:17:38;16.30;99.90
24446;DHT22;13347;50.984;5.822;2023-07-20T02:20:07;16.40;99.90
24446;DHT22;13347;50.984;5.822;2023-07-20T02:22:35;16.30;99.90
24446;DHT22;13347;50.984;5.822;2023-07-20T02:25:04;16.20;99.90
24446;DHT22;13347;50.984;5.822;2023-07-20T02:27:31;16.10;99.90
24446;DHT22;13347;50.984;5.822;2023-07-20T02:29:58;16.00;99.90
24446;DHT22;13347;50.984;5.822;2023-07-20T02:32:25;15.90;99.90
24446;DHT22;13347;50.984;5.822;2023-07-20T02:34:52;15.90;99.90
24446;DHT22;13347;50.984;5.822;2023-07-20T02:37:19;15.80;99.90
24446;DHT22;13347;50.984;5.822;2023-07-20T02:39:46;15.70;99.90
24446;DHT22;13347;50.984;5.822;2023-07-20T02:42:14;15.70;99.90
24446;DHT22;13347;50.984;5.822;2023-07-20T02:44:41;15.70;99.90
24446;DHT22;13347;50.984;5.822;2023-07-20T02:47:08;15.60;99.90
24446;DHT22;13347;50.984;5.822;2023-07-20T02:49:35;15.60;99.90
24446;DHT22;13347;50.984;5.822;2023-07-20T02:52:02;15.60;99.90
24446;DHT22;13347;50.984;5.822;2023-07-20T02:54:29;15.60;99.90
24446;DHT22;13347;50.984;5.822;2023-07-20T02:56:56;15.60;99.90
24446;DHT22;13347;50.984;5.822;2023-07-20T02:59:25;15.70;99.90
24446;DHT22;13347;50.984;5.822;2023-07-20T03:01:52;15.70;99.90
24446;DHT22;13347;50.984;5.822;2023-07-20T03:04:19;15.80;99.90
24446;DHT22;13347;50.984;5.822;2023-07-20T03:06:47;15.90;99.90
24446;DHT22;13347;50.984;5.822;2023-07-20T03:09:14;15.80;99.90
24446;DHT22;13347;50.984;5.822;2023-07-20T03:11:41;15.90;99.90
24446;DHT22;13347;50.984;5.822;2023-07-20T03:14:08;16.00;99.90
24446;DHT22;13347;50.984;5.822;2023-07-20T03:16:37;16.00;99.90
24446;DHT22;13347;50.984;5.822;2023-07-20T03:19:04;16.00;99.90
24446;DHT22;13347;50.984;5.822;2023-07-20T03:21:31;16.00;99.90
24446;DHT22;13347;50.984;5.822;2023-07-20T03:23:58;15.90;99.90
24446;DHT22;13347;50.984;5.822;2023-07-20T03:26:25;15.80;99.90
24446;DHT22;13347;50.984;5.822;2023-07-20T03:28:52;15.80;99.90
24446;DHT22;13347;50.984;5.822;2023-07-20T03:31:19;15.80;99.90
24446;DHT22;13347;50.984;5.822;2023-07-20T03:33:47;15.80;99.90
24446;DHT22;13347;50.984;5.822;2023-07-20T03:36:14;15.90;99.90
24446;DHT22;13347;50.984;5.822;2023-07-20T03:38:41;15.90;99.90
24446;DHT22;13347;50.984;5.822;2023-07-20T03:41:08;15.90;99.90
24446;DHT22;13347;50.984;5.822;2023-07-20T03:43:37;15.90;99.90
24446;DHT22;13347;50.984;5.822;2023-07-20T03:46:04;16.00;99.90
24446;DHT22;13347;50.984;5.822;2023-07-20T03:48:32;16.00;99.90
24446;DHT22;13347;50.984;5.822;2023-07-20T03:51:00;15.90;99.90
24446;DHT22;13347;50.984;5.822;2023-07-20T03:53:27;16.00;99.90
24446;DHT22;13347;50.984;5.822;2023-07-20T03:55:54;16.00;99.90
24446;DHT22;13347;50.984;5.822;2023-07-20T03:58:21;16.00;99.90
24446;DHT22;13347;50.984;5.822;2023-07-20T04:00:49;16.00;99.90
24446;DHT22;13347;50.984;5.822;2023-07-20T04:03:17;16.00;99.90
24446;DHT22;13347;50.984;5.822;2023-07-20T04:05:44;16.00;99.90
24446;DHT22;13347;50.984;5.822;2023-07-20T04:08:12;16.10;99.90
24446;DHT22;13347;50.984;5.822;2023-07-20T04:10:43;16.10;99.90
24446;DHT22;13347;50.984;5.822;2023-07-20T04:13:10;16.00;99.90
24446;DHT22;13347;50.984;5.822;2023-07-20T04:15:37;16.00;99.90
24446;DHT22;13347;50.984;5.822;2023-07-20T04:18:03;16.00;99.90
24446;DHT22;13347;50.984;5.822;2023-07-20T04:20:30;16.00;99.90
24446;DHT22;13347;50.984;5.822;2023-07-20T04:22:57;16.10;99.90
24446;DHT22;13347;50.984;5.822;2023-07-20T04:25:26;16.10;99.90
24446;DHT22;13347;50.984;5.822;2023-07-20T04:27:53;16.10;99.90
24446;DHT22;13347;50.984;5.822;2023-07-20T04:30:21;16.10;99.90
24446;DHT22;13347;50.984;5.822;2023-07-20T04:32:48;16.10;99.90
24446;DHT22;13347;50.984;5.822;2023-07-20T04:35:44;16.10;99.90
24446;DHT22;13347;50.984;5.822;2023-07-20T04:38:05;16.10;99.90
24446;DHT22;13347;50.984;5.822;2023-07-20T04:40:33;16.20;99.90
24446;DHT22;13347;50.984;5.822;2023-07-20T04:43:00;16.20;99.90
24446;DHT22;13347;50.984;5.822;2023-07-20T04:45:27;16.30;99.90
24446;DHT22;13347;50.984;5.822;2023-07-20T04:47:54;16.30;99.90
24446;DHT22;13347;50.984;5.822;2023-07-20T04:50:21;16.30;99.90
24446;DHT22;13347;50.984;5.822;2023-07-20T04:52:49;16.30;99.90
24446;DHT22;13347;50.984;5.822;2023-07-20T04:55:16;16.30;99.90
24446;DHT22;13347;50.984;5.822;2023-07-20T04:57:45;16.50;99.90
24446;DHT22;13347;50.984;5.822;2023-07-20T05:00:12;16.60;99.90
24446;DHT22;13347;50.984;5.822;2023-07-20T05:02:40;16.80;99.90
24446;DHT22;13347;50.984;5.822;2023-07-20T05:05:07;16.80;99.90
24446;DHT22;13347;50.984;5.822;2023-07-20T05:07:34;16.80;99.90
24446;DHT22;13347;50.984;5.822;2023-07-20T05:10:01;16.60;99.90
24446;DHT22;13347;50.984;5.822;2023-07-20T05:12:28;16.60;99.90
24446;DHT22;13347;50.984;5.822;2023-07-20T05:14:56;16.50;99.90
24446;DHT22;13347;50.984;5.822;2023-07-20T05:17:23;16.50;99.90
24446;DHT22;13347;50.984;5.822;2023-07-20T05:19:51;16.60;99.90
24446;DHT22;13347;50.984;5.822;2023-07-20T05:22:18;16.60;99.90
24446;DHT22;13347;50.984;5.822;2023-07-20T05:24:45;16.50;99.90
24446;DHT22;13347;50.984;5.822;2023-07-20T05:27:12;16.60;99.90
24446;DHT22;13347;50.984;5.822;2023-07-20T05:29:43;16.50;99.90
24446;DHT22;13347;50.984;5.822;2023-07-20T05:32:11;16.50;99.90
24446;DHT22;13347;50.984;5.822;2023-07-20T05:34:38;16.60;99.90
24446;DHT22;13347;50.984;5.822;2023-07-20T05:37:05;16.60;99.90
24446;DHT22;13347;50.984;5.822;2023-07-20T05:39:32;16.70;99.90
24446;DHT22;13347;50.984;5.822;2023-07-20T05:41:59;16.70;99.90
24446;DHT22;13347;50.984;5.822;2023-07-20T05:44:26;16.70;99.90
24446;DHT22;13347;50.984;5.822;2023-07-20T05:46:53;16.80;99.90
24446;DHT22;13347;50.984;5.822;2023-07-20T05:49:22;16.90;99.90
24446;DHT22;13347;50.984;5.822;2023-07-20T05:51:49;16.90;99.90
24446;DHT22;13347;50.984;5.822;2023-07-20T05:54:16;16.90;99.90
24446;DHT22;13347;50.984;5.822;2023-07-20T05:56:43;16.80;99.90
24446;DHT22;13347;50.984;5.822;2023-07-20T05:59:10;16.70;99.90
24446;DHT22;13347;50.984;5.822;2023-07-20T06:01:37;16.70;99.90
24446;DHT22;13347;50.984;5.822;2023-07-20T06:04:04;16.90;99.90
24446;DHT22;13347;50.984;5.822;2023-07-20T06:06:32;17.00;99.90
24446;DHT22;13347;50.984;5.822;2023-07-20T06:08:59;17.40;99.90
24446;DHT22;13347;50.984;5.822;2023-07-20T06:11:29;17.50;99.90
24446;DHT22;13347;50.984;5.822;2023-07-20T06:13:57;17.80;99.90
24446;DHT22;13347;50.984;5.822;2023-07-20T06:16:24;17.90;99.90
24446;DHT22;13347;50.984;5.822;2023-07-20T06:18:51;18.00;99.90
24446;DHT22;13347;50.984;5.822;2023-07-20T06:21:18;18.10;99.90
24446;DHT22;13347;50.984;5.822;2023-07-20T06:23:46;18.30;99.90
24446;DHT22;13347;50.984;5.822;2023-07-20T06:26:13;18.50;99.90
24446;DHT22;13347;50.984;5.822;2023-07-20T06:28:41;19.20;99.90
24446;DHT22;13347;50.984;5.822;2023-07-20T06:31:08;20.20;99.90
24446;DHT22;13347;50.984;5.822;2023-07-20T06:33:35;21.60;1.00
24446;DHT22;13347;50.984;5.822;2023-07-20T06:36:02;22.30;1.00
24446;DHT22;13347;50.984;5.822;2023-07-20T06:38:29;22.30;1.00
24446;DHT22;13347;50.984;5.822;2023-07-20T06:40:58;21.90;1.00
24446;DHT22;13347;50.984;5.822;2023-07-20T06:43:25;21.90;1.00
24446;DHT22;13347;50.984;5.822;2023-07-20T06:45:52;22.50;99.90
24446;DHT22;13347;50.984;5.822;2023-07-20T06:48:19;23.30;1.00
24446;DHT22;13347;50.984;5.822;2023-07-20T06:50:47;22.80;99.90
24446;DHT22;13347;50.984;5.822;2023-07-20T06:53:14;22.40;99.90
24446;DHT22;13347;50.984;5.822;2023-07-20T06:55:41;21.80;1.00
24446;DHT22;13347;50.984;5.822;2023-07-20T06:58:10;21.40;1.00
24446;DHT22;13347;50.984;5.822;2023-07-20T07:00:37;20.80;1.00
24446;DHT22;13347;50.984;5.822;2023-07-20T07:03:04;20.30;1.00
24446;DHT22;13347;50.984;5.822;2023-07-20T07:05:31;20.10;1.00
24446;DHT22;13347;50.984;5.822;2023-07-20T07:07:58;21.10;1.00
24446;DHT22;13347;50.984;5.822;2023-07-20T07:10:25;22.40;1.00
24446;DHT22;13347;50.984;5.822;2023-07-20T07:12:52;22.40;99.90
24446;DHT22;13347;50.984;5.822;2023-07-20T07:15:20;22.10;56.70
24446;DHT22;13347;50.984;5.822;2023-07-20T07:17:47;21.70;99.90
24446;DHT22;13347;50.984;5.822;2023-07-20T07:20:15;21.70;34.50
24446;DHT22;13347;50.984;5.822;2023-07-20T07:22:42;21.60;65.40
24446;DHT22;13347;50.984;5.822;2023-07-20T07:25:10;21.20;99.90
24446;DHT22;13347;50.984;5.822;2023-07-20T07:27:38;21.10;1.00
24446;DHT22;13347;50.984;5.822;2023-07-20T07:30:05;20.70;1.00
24446;DHT22;13347;50.984;5.822;2023-07-20T07:32:34;20.50;99.90
24446;DHT22;13347;50.984;5.822;2023-07-20T07:35:01;20.30;99.90
24446;DHT22;13347;50.984;5.822;2023-07-20T07:37:28;20.10;1.00
24446;DHT22;13347;50.984;5.822;2023-07-20T07:39:55;20.00;1.00
24446;DHT22;13347;50.984;5.822;2023-07-20T07:42:23;20.20;99.90
24446;DHT22;13347;50.984;5.822;2023-07-20T07:44:50;20.20;1.00
24446;DHT22;13347;50.984;5.822;2023-07-20T07:47:17;20.20;1.00
24446;DHT22;13347;50.984;5.822;2023-07-20T07:49:45;20.30;1.00
24446;DHT22;13347;50.984;5.822;2023-07-20T07:52:12;20.30;99.90
24446;DHT22;13347;50.984;5.822;2023-07-20T07:54:39;20.30;99.90
24446;DHT22;13347;50.984;5.822;2023-07-20T07:57:06;20.30;1.00
24446;DHT22;13347;50.984;5.822;2023-07-20T07:59:33;20.40;1.00
24446;DHT22;13347;50.984;5.822;2023-07-20T08:02:04;20.70;1.00
24446;DHT22;13347;50.984;5.822;2023-07-20T08:04:31;20.60;1.00
24446;DHT22;13347;50.984;5.822;2023-07-20T08:07:00;20.30;1.00
24446;DHT22;13347;50.984;5.822;2023-07-20T08:09:27;20.10;1.00
24446;DHT22;13347;50.984;5.822;2023-07-20T08:11:53;19.80;99.90
24446;DHT22;13347;50.984;5.822;2023-07-20T08:14:21;19.70;99.90
24446;DHT22;13347;50.984;5.822;2023-07-20T08:16:47;19.70;1.00
24446;DHT22;13347;50.984;5.822;2023-07-20T08:19:14;19.90;1.00
24446;DHT22;13347;50.984;5.822;2023-07-20T08:21:41;20.10;99.90
24446;DHT22;13347;50.984;5.822;2023-07-20T08:24:10;20.30;99.90
24446;DHT22;13347;50.984;5.822;2023-07-20T08:26:37;20.70;1.00
24446;DHT22;13347;50.984;5.822;2023-07-20T08:29:04;20.70;1.00
24446;DHT22;13347;50.984;5.822;2023-07-20T08:31:31;20.60;1.00
24446;DHT22;13347;50.984;5.822;2023-07-20T08:33:58;20.80;1.00
24446;DHT22;13347;50.984;5.822;2023-07-20T08:36:25;20.80;1.00
24446;DHT22;13347;50.984;5.822;2023-07-20T08:38:52;20.50;1.00
24446;DHT22;13347;50.984;5.822;2023-07-20T08:41:21;20.50;1.00
24446;DHT22;13347;50.984;5.822;2023-07-20T08:43:48;20.70;1.00
24446;DHT22;13347;50.984;5.822;2023-07-20T08:46:15;20.60;1.00
24446;DHT22;13347;50.984;5.822;2023-07-20T08:48:42;21.00;99.90
24446;DHT22;13347;50.984;5.822;2023-07-20T08:51:10;21.10;99.90
24446;DHT22;13347;50.984;5.822;2023-07-20T08:53:38;21.60;3.90
24446;DHT22;13347;50.984;5.822;2023-07-20T08:56:05;22.00;1.00
24446;DHT22;13347;50.984;5.822;2023-07-20T08:58:34;22.70;1.00
24446;DHT22;13347;50.984;5.822;2023-07-20T09:01:01;23.90;1.00
24446;DHT22;13347;50.984;5.822;2023-07-20T09:03:28;24.50;1.00
24446;DHT22;13347;50.984;5.822;2023-07-20T09:05:55;24.50;1.00
24446;DHT22;13347;50.984;5.822;2023-07-20T09:08:23;23.50;1.00
24446;DHT22;13347;50.984;5.822;2023-07-20T09:10:50;23.00;1.00
24446;DHT22;13347;50.984;5.822;2023-07-20T09:13:17;22.60;1.00
24446;DHT22;13347;50.984;5.822;2023-07-20T09:15:49;22.00;1.00
24446;DHT22;13347;50.984;5.822;2023-07-20T09:18:26;22.00;1.00
24446;DHT22;13347;50.984;5.822;2023-07-20T09:20:54;22.20;1.00
24446;DHT22;13347;50.984;5.822;2023-07-20T09:23:29;23.20;1.00
24446;DHT22;13347;50.984;5.822;2023-07-20T09:25:57;23.00;99.90
24446;DHT22;13347;50.984;5.822;2023-07-20T09:28:24;22.90;99.90
24446;DHT22;13347;50.984;5.822;2023-07-20T09:30:52;22.90;99.90
24446;DHT22;13347;50.984;5.822;2023-07-20T09:33:21;23.70;99.90
24446;DHT22;13347;50.984;5.822;2023-07-20T09:35:48;24.50;99.90
24446;DHT22;13347;50.984;5.822;2023-07-20T09:38:15;24.70;26.70
24446;DHT22;13347;50.984;5.822;2023-07-20T09:40:43;24.90;20.60
24446;DHT22;13347;50.984;5.822;2023-07-20T09:43:10;24.90;1.00
24446;DHT22;13347;50.984;5.822;2023-07-20T09:45:39;25.00;1.00
24446;DHT22;13347;50.984;5.822;2023-07-20T09:48:09;24.40;1.00
24446;DHT22;13347;50.984;5.822;2023-07-20T09:50:39;24.00;1.00
24446;DHT22;13347;50.984;5.822;2023-07-20T09:53:07;23.70;1.00
24446;DHT22;13347;50.984;5.822;2023-07-20T09:55:35;24.50;1.00
24446;DHT22;13347;50.984;5.822;2023-07-20T09:58:03;25.00;1.00
24446;DHT22;13347;50.984;5.822;2023-07-20T10:00:32;23.70;1.00
24446;DHT22;13347;50.984;5.822;2023-07-20T10:03:00;22.90;1.00
24446;DHT22;13347;50.984;5.822;2023-07-20T10:05:30;22.90;1.00
24446;DHT22;13347;50.984;5.822;2023-07-20T10:07:59;23.50;1.00
24446;DHT22;13347;50.984;5.822;2023-07-20T10:10:28;24.90;1.00
24446;DHT22;13347;50.984;5.822;2023-07-20T10:12:55;25.10;1.00
24446;DHT22;13347;50.984;5.822;2023-07-20T10:15:24;25.50;1.00
24446;DHT22;13347;50.984;5.822;2023-07-20T10:17:56;25.00;1.00
24446;DHT22;13347;50.984;5.822;2023-07-20T10:20:24;24.20;1.00
24446;DHT22;13347;50.984;5.822;2023-07-20T10:22:53;23.40;1.00
24446;DHT22;13347;50.984;5.822;2023-07-20T10:25:22;22.90;1.00
24446;DHT22;13347;50.984;5.822;2023-07-20T10:27:49;22.80;1.00
24446;DHT22;13347;50.984;5.822;2023-07-20T10:30:16;23.10;1.00
24446;DHT22;13347;50.984;5.822;2023-07-20T10:32:44;23.60;1.00
24446;DHT22;13347;50.984;5.822;2023-07-20T10:35:14;24.10;1.00
24446;DHT22;13347;50.984;5.822;2023-07-20T10:37:48;24.10;1.00
24446;DHT22;13347;50.984;5.822;2023-07-20T10:40:27;25.10;1.00
24446;DHT22;13347;50.984;5.822;2023-07-20T10:43:00;25.50;1.00
24446;DHT22;13347;50.984;5.822;2023-07-20T10:45:35;26.20;1.00
24446;DHT22;13347;50.984;5.822;2023-07-20T10:48:03;26.80;1.00
24446;DHT22;13347;50.984;5.822;2023-07-20T10:50:30;26.20;99.90
24446;DHT22;13347;50.984;5.822;2023-07-20T10:53:13;26.30;99.90
24446;DHT22;13347;50.984;5.822;2023-07-20T10:55:42;27.00;99.90
24446;DHT22;13347;50.984;5.822;2023-07-20T10:58:10;26.90;99.90
24446;DHT22;13347;50.984;5.822;2023-07-20T11:00:38;26.40;99.90
24446;DHT22;13347;50.984;5.822;2023-07-20T11:03:28;26.20;99.90
24446;DHT22;13347;50.984;5.822;2023-07-20T11:05:56;25.70;99.90
24446;DHT22;13347;50.984;5.822;2023-07-20T11:08:37;25.40;99.90
24446;DHT22;13347;50.984;5.822;2023-07-20T11:11:25;26.00;99.90
24446;DHT22;13347;50.984;5.822;2023-07-20T11:13:56;25.70;99.90
24446;DHT22;13347;50.984;5.822;2023-07-20T11:19:16;24.40;99.90
24446;DHT22;13347;50.984;5.822;2023-07-20T11:21:44;23.80;99.90
24446;DHT22;13347;50.984;5.822;2023-07-20T11:24:11;23.40;99.90
24446;DHT22;13347;50.984;5.822;2023-07-20T11:26:44;23.40;99.90
24446;DHT22;13347;50.984;5.822;2023-07-20T11:29:11;24.20;99.90
24446;DHT22;13347;50.984;5.822;2023-07-20T11:31:39;25.10;99.90
24446;DHT22;13347;50.984;5.822;2023-07-20T11:34:06;26.00;99.90
24446;DHT22;13347;50.984;5.822;2023-07-20T11:36:34;26.70;99.90
24446;DHT22;13347;50.984;5.822;2023-07-20T11:39:01;26.80;99.90
24446;DHT22;13347;50.984;5.822;2023-07-20T11:41:30;27.00;99.90
24446;DHT22;13347;50.984;5.822;2023-07-20T11:43:59;27.10;99.90
24446;DHT22;13347;50.984;5.822;2023-07-20T11:46:27;26.70;99.90
24446;DHT22;13347;50.984;5.822;2023-07-20T11:48:57;27.40;99.90
24446;DHT22;13347;50.984;5.822;2023-07-20T11:51:25;27.60;1.00
24446;DHT22;13347;50.984;5.822;2023-07-20T11:53:53;27.60;47.80
24446;DHT22;13347;50.984;5.822;2023-07-20T11:56:20;27.80;1.00
24446;DHT22;13347;50.984;5.822;2023-07-20T11:58:48;27.00;1.00
24446;DHT22;13347;50.984;5.822;2023-07-20T12:01:16;27.00;1.00
24446;DHT22;13347;50.984;5.822;2023-07-20T12:03:44;26.50;1.00
24446;DHT22;13347;50.984;5.822;2023-07-20T12:06:11;25.90;1.00
24446;DHT22;13347;50.984;5.822;2023-07-20T12:08:38;25.90;1.00
24446;DHT22;13347;50.984;5.822;2023-07-20T12:11:06;26.20;1.00
24446;DHT22;13347;50.984;5.822;2023-07-20T12:13:36;26.40;1.00
24446;DHT22;13347;50.984;5.822;2023-07-20T12:16:08;25.70;1.00
24446;DHT22;13347;50.984;5.822;2023-07-20T12:18:37;25.50;1.00
24446;DHT22;13347;50.984;5.822;2023-07-20T12:21:05;25.40;1.00
24446;DHT22;13347;50.984;5.822;2023-07-20T12:23:35;25.40;1.00
24446;DHT22;13347;50.984;5.822;2023-07-20T12:26:05;25.50;1.00
24446;DHT22;13347;50.984;5.822;2023-07-20T12:28:32;25.60;1.00
24446;DHT22;13347;50.984;5.822;2023-07-20T12:30:59;25.60;1.00
24446;DHT22;13347;50.984;5.822;2023-07-20T12:33:26;25.30;1.00
24446;DHT22;13347;50.984;5.822;2023-07-20T12:35:55;25.10;1.00
24446;DHT22;13347;50.984;5.822;2023-07-20T12:38:24;25.20;1.00
24446;DHT22;13347;50.984;5.822;2023-07-20T12:40:52;25.70;1.00
24446;DHT22;13347;50.984;5.822;2023-07-20T12:43:20;25.60;1.00
24446;DHT22;13347;50.984;5.822;2023-07-20T12:45:47;25.80;1.00
24446;DHT22;13347;50.984;5.822;2023-07-20T12:48:14;25.50;1.00
24446;DHT22;13347;50.984;5.822;2023-07-20T12:50:41;25.60;1.00
24446;DHT22;13347;50.984;5.822;2023-07-20T12:53:09;26.80;1.00
24446;DHT22;13347;50.984;5.822;2023-07-20T12:55:37;27.00;1.00
24446;DHT22;13347;50.984;5.822;2023-07-20T12:58:04;26.70;1.00
24446;DHT22;13347;50.984;5.822;2023-07-20T13:00:31;26.50;1.00
24446;DHT22;13347;50.984;5.822;2023-07-20T13:02:58;26.20;1.00
24446;DHT22;13347;50.984;5.822;2023-07-20T13:05:25;26.00;1.00
24446;DHT22;13347;50.984;5.822;2023-07-20T13:07:52;26.00;1.00
24446;DHT22;13347;50.984;5.822;2023-07-20T13:10:21;25.70;1.00
24446;DHT22;13347;50.984;5.822;2023-07-20T13:12:47;25.80;1.00
24446;DHT22;13347;50.984;5.822;2023-07-20T13:15:15;26.00;1.00
24446;DHT22;13347;50.984;5.822;2023-07-20T13:17:42;26.80;1.00
24446;DHT22;13347;50.984;5.822;2023-07-20T13:20:10;27.00;1.00
24446;DHT22;13347;50.984;5.822;2023-07-20T13:22:37;26.70;1.00
24446;DHT22;13347;50.984;5.822;2023-07-20T13:25:04;26.20;1.00
24446;DHT22;13347;50.984;5.822;2023-07-20T13:27:33;26.60;1.00
24446;DHT22;13347;50.984;5.822;2023-07-20T13:30:00;27.40;1.00
24446;DHT22;13347;50.984;5.822;2023-07-20T13:32:32;27.50;1.00
24446;DHT22;13347;50.984;5.822;2023-07-20T13:34:59;27.30;1.00
24446;DHT22;13347;50.984;5.822;2023-07-20T13:37:26;26.70;1.00
24446;DHT22;13347;50.984;5.822;2023-07-20T13:39:53;26.00;1.00
24446;DHT22;13347;50.984;5.822;2023-07-20T13:42:20;26.10;1.00
24446;DHT22;13347;50.984;5.822;2023-07-20T13:44:49;26.20;1.00
24446;DHT22;13347;50.984;5.822;2023-07-20T13:47:16;25.50;1.00
24446;DHT22;13347;50.984;5.822;2023-07-20T13:49:43;25.40;1.00
24446;DHT22;13347;50.984;5.822;2023-07-20T13:52:10;25.20;1.00
24446;DHT22;13347;50.984;5.822;2023-07-20T13:54:37;24.80;1.00
24446;DHT22;13347;50.984;5.822;2023-07-20T13:57:04;24.70;1.00
24446;DHT22;13347;50.984;5.822;2023-07-20T13:59:32;24.60;1.00
24446;DHT22;13347;50.984;5.822;2023-07-20T14:02:00;24.80;1.00
24446;DHT22;13347;50.984;5.822;2023-07-20T14:04:27;25.20;1.00
24446;DHT22;13347;50.984;5.822;2023-07-20T14:06:54;25.30;1.00
24446;DHT22;13347;50.984;5.822;2023-07-20T14:09:21;25.40;1.00
24446;DHT22;13347;50.984;5.822;2023-07-20T14:11:48;25.50;1.00
24446;DHT22;13347;50.984;5.822;2023-07-20T14:14:15;25.60;1.00
24446;DHT22;13347;50.984;5.822;2023-07-20T14:16:42;25.50;1.00
24446;DHT22;13347;50.984;5.822;2023-07-20T14:19:10;25.60;1.00
24446;DHT22;13347;50.984;5.822;2023-07-20T14:21:38;25.80;1.00
24446;DHT22;13347;50.984;5.822;2023-07-20T14:24:05;25.50;1.00
24446;DHT22;13347;50.984;5.822;2023-07-20T14:26:32;25.20;1.00
24446;DHT22;13347;50.984;5.822;2023-07-20T14:29:00;25.00;1.00
24446;DHT22;13347;50.984;5.822;2023-07-20T14:31:28;25.50;1.00
24446;DHT22;13347;50.984;5.822;2023-07-20T14:33:55;26.00;1.00
24446;DHT22;13347;50.984;5.822;2023-07-20T14:36:23;27.40;1.00
24446;DHT22;13347;50.984;5.822;2023-07-20T14:38:50;27.40;1.00
24446;DHT22;13347;50.984;5.822;2023-07-20T14:41:17;27.20;1.00
24446;DHT22;13347;50.984;5.822;2023-07-20T14:43:44;27.60;1.00
24446;DHT22;13347;50.984;5.822;2023-07-20T14:46:11;28.20;1.00
24446;DHT22;13347;50.984;5.822;2023-07-20T14:48:38;28.60;1.00
24446;DHT22;13347;50.984;5.822;2023-07-20T14:51:06;28.80;1.00
24446;DHT22;13347;50.984;5.822;2023-07-20T14:53:34;28.40;1.00
24446;DHT22;13347;50.984;5.822;2023-07-20T14:56:01;27.70;1.00
24446;DHT22;13347;50.984;5.822;2023-07-20T14:58:29;27.50;1.00
24446;DHT22;13347;50.984;5.822;2023-07-20T15:00:56;27.00;1.00
24446;DHT22;13347;50.984;5.822;2023-07-20T15:03:23;26.80;1.00
24446;DHT22;13347;50.984;5.822;2023-07-20T15:05:50;26.70;1.00
24446;DHT22;13347;50.984;5.822;2023-07-20T15:08:17;26.10;1.00
24446;DHT22;13347;50.984;5.822;2023-07-20T15:10:46;26.00;1.00
24446;DHT22;13347;50.984;5.822;2023-07-20T15:13:13;25.20;1.00
24446;DHT22;13347;50.984;5.822;2023-07-20T15:15:40;25.70;1.00
24446;DHT22;13347;50.984;5.822;2023-07-20T15:18:08;25.70;1.00
24446;DHT22;13347;50.984;5.822;2023-07-20T15:20:35;25.80;1.00
24446;DHT22;13347;50.984;5.822;2023-07-20T15:23:02;25.80;1.00
24446;DHT22;13347;50.984;5.822;2023-07-20T15:25:29;25.90;1.00
24446;DHT22;13347;50.984;5.822;2023-07-20T15:27:57;25.60;1.00
24446;DHT22;13347;50.984;5.822;2023-07-20T15:30:24;25.50;1.00
24446;DHT22;13347;50.984;5.822;2023-07-20T15:32:53;26.10;1.00
24446;DHT22;13347;50.984;5.822;2023-07-20T15:35:21;26.10;1.00
24446;DHT22;13347;50.984;5.822;2023-07-20T15:37:48;25.90;1.00
24446;DHT22;13347;50.984;5.822;2023-07-20T15:40:15;25.90;1.00
24446;DHT22;13347;50.984;5.822;2023-07-20T15:42:42;26.10;1.00
24446;DHT22;13347;50.984;5.822;2023-07-20T15:45:11;25.90;1.00